»·PEaware :: N2494V KPSP-KSNA

N2494V :: KPSP-KSNA

FLIGHT INFORMATION

Flight Status: Arrived
Operator: Privately registered:
United States
More flights under this callsign
Pilot: Sally S. (18014)
Aircraft: MOONEY M-20 201 202 205 220 ATS MSE
(M20P)
More flights by this aircraft type
Origin: KPSP Palm Springs Intl
United States
Destination: KSNA John Wayne-Orange Co
United States
More flights between these airports :: More routes between these airports
Route: +CATH1 PSP V388 ACINS V283 SLI
File this flight plan on PilotEdge
Remarks: TEC Route PSPN8A
Altitude:
(Current/Filed)
10,000ft
Speed:
(Current/Filed)
150kts
Departed: 05-Mar-18 01:30 PM
Arrived: 05-Mar-18 02:09 PM
Distance/Time
Traveled:
69nm/0:39
Distance/Time
To Go:
Arrived

Flight Plot

Page will automatically refresh every two minutes.


Map Options




Map Legend


Flown Route
Filed Route
Departure Airport
Arrival Airport
Navaid (VOR, NDB)
Fix

Horizontal Profiles

Position Reports

Time Latitude Longitude Heading Altitude Ground
Speed
05-Mar-18 12:33 33.825352 -116.509543 90 479ft 0kts
05-Mar-18 12:34 33.825352 -116.509543 90 479ft 0kts
05-Mar-18 12:35 33.825352 -116.509543 90 479ft 0kts
05-Mar-18 12:36 33.825352 -116.509543 90 479ft 0kts
05-Mar-18 12:37 33.825352 -116.509543 90 479ft 0kts
05-Mar-18 12:38 33.825352 -116.509543 90 479ft 0kts
05-Mar-18 12:39 33.825352 -116.509543 90 479ft 0kts
05-Mar-18 12:41 33.825352 -116.509543 90 479ft 0kts
05-Mar-18 12:42 33.825352 -116.509543 90 479ft 0kts
05-Mar-18 12:43 33.825352 -116.509543 90 479ft 0kts
05-Mar-18 12:44 33.825352 -116.509543 90 479ft 0kts
05-Mar-18 12:45 33.825352 -116.509543 90 479ft 0kts
05-Mar-18 12:46 33.825352 -116.509543 90 479ft 0kts
05-Mar-18 12:47 33.825352 -116.509543 90 479ft 0kts
05-Mar-18 12:48 33.825352 -116.509543 90 479ft 0kts
05-Mar-18 12:49 33.825352 -116.509543 90 479ft 0kts
05-Mar-18 12:50 33.825352 -116.509543 90 479ft 0kts
05-Mar-18 12:51 33.825352 -116.509543 90 479ft 0kts
05-Mar-18 12:52 33.825352 -116.509543 90 479ft 0kts
05-Mar-18 12:53 33.825352 -116.509543 90 479ft 0kts
05-Mar-18 12:54 33.825352 -116.509543 90 479ft 0kts
05-Mar-18 12:55 33.825352 -116.509543 90 479ft 0kts
05-Mar-18 12:56 33.825352 -116.509543 90 479ft 0kts
05-Mar-18 12:57 33.825352 -116.509543 90 479ft 0kts
05-Mar-18 12:58 33.825352 -116.509543 90 479ft 0kts
05-Mar-18 12:59 33.825352 -116.509543 90 479ft 0kts
05-Mar-18 13:00 33.825352 -116.509543 90 479ft 0kts
05-Mar-18 13:01 33.825352 -116.509543 90 479ft 0kts
05-Mar-18 13:02 33.825352 -116.509543 90 479ft 0kts
05-Mar-18 13:03 33.825352 -116.509543 90 479ft 0kts
05-Mar-18 13:04 33.825352 -116.509543 90 479ft 0kts
05-Mar-18 13:05 33.825352 -116.509543 90 479ft 0kts
05-Mar-18 13:06 33.825352 -116.509543 90 479ft 0kts
05-Mar-18 13:07 33.825352 -116.509543 90 479ft 0kts
05-Mar-18 13:14 33.825352 -116.509542 90 479ft 0kts
05-Mar-18 13:15 33.825352 -116.509542 90 479ft 0kts
05-Mar-18 13:16 33.825352 -116.509542 90 479ft 0kts
05-Mar-18 13:17 33.825352 -116.509542 90 479ft 0kts
05-Mar-18 13:18 33.825352 -116.509542 90 479ft 0kts
05-Mar-18 13:19 33.825352 -116.509542 90 479ft 0kts
05-Mar-18 13:20 33.825352 -116.509542 90 479ft 0kts
05-Mar-18 13:21 33.825352 -116.509542 90 479ft 0kts
05-Mar-18 13:22 33.825352 -116.509542 90 479ft 0kts
05-Mar-18 13:23 33.825352 -116.509542 90 479ft 0kts
05-Mar-18 13:24 33.825352 -116.509542 90 479ft 0kts
05-Mar-18 13:25 33.825352 -116.509542 90 479ft 0kts
05-Mar-18 13:26 33.825352 -116.509542 90 479ft 0kts
05-Mar-18 13:27 33.825352 -116.509542 90 479ft 0kts
05-Mar-18 13:28 33.825352 -116.509542 90 479ft 0kts
05-Mar-18 13:29 33.825352 -116.509542 90 479ft 0kts
05-Mar-18 13:30 33.825352 -116.509542 90 479ft 0kts
05-Mar-18 13:31 33.825352 -116.509542 90 479ft 0kts
05-Mar-18 13:32 33.825653 -116.507932 86 479ft 11kts
05-Mar-18 13:33 33.822798 -116.503578 142 479ft 31kts
05-Mar-18 13:34 33.818470 -116.498850 77 479ft 0kts
05-Mar-18 13:35 33.818471 -116.498849 77 479ft 0kts
05-Mar-18 13:36 33.818595 -116.498432 62 479ft 14kts
05-Mar-18 13:37 33.837418 -116.515295 324 1015ft 137kts
05-Mar-18 13:38 33.866667 -116.543834 320 2786ft 136kts
05-Mar-18 13:39 33.897550 -116.565580 17 4488ft 134kts
05-Mar-18 13:40 33.899683 -116.525817 108 5971ft 138kts
05-Mar-18 13:41 33.886470 -116.482100 109 7313ft 141kts
05-Mar-18 13:42 33.872709 -116.437510 109 8498ft 144kts
05-Mar-18 13:43 33.854963 -116.393670 116 9587ft 147kts
05-Mar-18 13:44 33.839961 -116.345399 72 10018ft 181kts
05-Mar-18 13:45 33.872732 -116.359889 272 10020ft 204kts
05-Mar-18 13:46 33.873065 -116.429716 271 10027ft 212kts
05-Mar-18 13:47 33.894842 -116.494547 291 10027ft 213kts
05-Mar-18 13:48 33.911860 -116.563205 285 10034ft 214kts
05-Mar-18 13:49 33.926126 -116.631028 284 10026ft 205kts
05-Mar-18 13:50 33.938794 -116.692651 284 10014ft 203kts
05-Mar-18 13:51 33.947732 -116.759506 268 9995ft 204kts
05-Mar-18 13:52 33.945535 -116.827402 268 9975ft 202kts
05-Mar-18 13:53 33.943214 -116.895313 268 9958ft 202kts
05-Mar-18 13:54 33.940873 -116.962520 269 9957ft 201kts
05-Mar-18 13:55 33.938503 -117.029430 269 9956ft 199kts
05-Mar-18 13:56 33.936119 -117.095940 269 9815ft 198kts
05-Mar-18 13:57 33.925362 -117.157546 211 9087ft 203kts
05-Mar-18 13:58 33.870131 -117.170861 188 8295ft 204kts
05-Mar-18 13:59 33.814191 -117.179555 187 7531ft 203kts
05-Mar-18 14:00 33.778236 -117.216695 269 6767ft 194kts
05-Mar-18 14:01 33.776145 -117.281251 251 6030ft 197kts
05-Mar-18 14:02 33.740190 -117.327971 226 5953ft 183kts
05-Mar-18 14:03 33.708937 -117.365858 226 5954ft 198kts
05-Mar-18 14:04 33.662809 -117.421794 226 5954ft 204kts
05-Mar-18 14:05 33.623077 -117.469613 226 6025ft 203kts
05-Mar-18 14:06 33.589559 -117.509638 226 6021ft 204kts
05-Mar-18 14:07 33.587630 -117.569125 292 5238ft 193kts
05-Mar-18 14:08 33.604764 -117.629956 291 4168ft 194kts
05-Mar-18 14:09 33.622413 -117.693933 291 4019ft 175kts
05-Mar-18 14:10 33.634519 -117.738688 291 4019ft 167kts
05-Mar-18 14:11 33.648463 -117.790620 291 4019ft 163kts
05-Mar-18 14:12 33.645413 -117.838691 307 3336ft 128kts
05-Mar-18 14:13 33.680687 -117.833591 19 1916ft 123kts
05-Mar-18 14:14 33.702248 -117.846688 270 679ft 102kts
05-Mar-18 14:15 33.680415 -117.863975 203 64ft 78kts
05-Mar-18 14:16 33.673787 -117.867451 129 58ft 4kts

Navigation Log

Ident Type
1. KPSP Airport
2. PSP Navaid
3. DEWAY Fix
4. ACINS Fix
5. HDF Navaid
6. DEJAY Fix
7. KAYOH Fix
8. JOGIT Fix
9. SLI Navaid
10. KSNA Airport